Terminal Aerodrome Forecast
Issued by NWS

Home | Current Version | Previous Version | Text Only | Print | Product List | Glossary On
Versions: 1 2 3 4 5 6 7 8 9 10 11 12 13 14 15 16 17 18 19 20 21 22 23
000
FTUS43 KLSX 200400 AAA
TAFCPS
TAF AMD
KCPS 200443Z 2005/2024 VRB04KT P6SM SCT025 OVC050
     FM200800 00000KT 5SM BR BKN025 OVC040
     FM201100 12003KT 4SM BR SCT007 OVC015
     FM201700 17006KT 6SM HZ BKN020 OVC050=

USA.gov is the U.S. government's official web portal to all federal, state and local government web resources and services.